createdAt,value
2023-06-18T00:00:51.037Z,13.58
2023-06-18T00:03:38.966Z,13.51
2023-06-18T00:06:06.688Z,13.44
2023-06-18T00:08:34.392Z,13.41
2023-06-18T00:11:02.203Z,13.41
2023-06-18T00:13:29.911Z,13.42
2023-06-18T00:15:57.604Z,13.42
2023-06-18T00:18:25.403Z,13.41
2023-06-18T00:20:53.063Z,13.39
2023-06-18T00:23:20.944Z,13.37
2023-06-18T00:25:48.672Z,13.34
2023-06-18T00:28:16.393Z,13.30
2023-06-18T00:30:44.135Z,13.26
2023-06-18T00:33:12.029Z,13.21
2023-06-18T00:35:40.365Z,13.18
2023-06-18T00:38:08.523Z,13.20
2023-06-18T00:40:36.183Z,13.21
2023-06-18T00:43:04.833Z,13.20
2023-06-18T00:45:33.672Z,13.18
2023-06-18T00:48:01.993Z,13.13
2023-06-18T00:50:33.505Z,13.09
2023-06-18T00:53:01.924Z,13.06
2023-06-18T00:55:29.880Z,13.01
2023-06-18T00:58:04.343Z,12.97
2023-06-18T01:00:35.614Z,12.93
2023-06-18T01:03:07.709Z,12.89
2023-06-18T01:05:36.075Z,12.90
2023-06-18T01:08:07.919Z,12.90
2023-06-18T01:10:40.564Z,12.90
2023-06-18T01:13:10.380Z,12.88
2023-06-18T01:15:39.692Z,12.85
2023-06-18T01:18:08.266Z,12.82
2023-06-18T01:20:42.083Z,12.79
2023-06-18T01:23:16.602Z,12.75
2023-06-18T01:25:44.987Z,12.70
2023-06-18T01:28:12.692Z,12.68
2023-06-18T01:30:40.992Z,12.68
2023-06-18T01:33:13.824Z,12.68
2023-06-18T01:35:42.346Z,12.66
2023-06-18T01:38:13.075Z,12.63
2023-06-18T01:41:08.329Z,12.59
2023-06-18T01:43:38.754Z,12.53
2023-06-18T01:46:08.728Z,12.47
2023-06-18T01:48:46.990Z,12.44
2023-06-18T01:51:17.136Z,12.39
2023-06-18T01:53:44.930Z,12.35
2023-06-18T01:56:14.666Z,12.34
2023-06-18T01:58:42.811Z,12.34
2023-06-18T02:01:12.588Z,12.36
2023-06-18T02:03:41.122Z,12.36
2023-06-18T02:06:09.028Z,12.34
2023-06-18T02:08:36.699Z,12.31
2023-06-18T02:11:04.544Z,12.27
2023-06-18T02:13:32.177Z,12.20
2023-06-18T02:15:59.848Z,12.12
2023-06-18T02:18:27.746Z,12.05
2023-06-18T02:20:55.719Z,12.00
2023-06-18T02:23:23.572Z,11.98
2023-06-18T02:25:52.135Z,11.98
2023-06-18T02:28:19.801Z,11.99
2023-06-18T02:30:47.522Z,11.98
2023-06-18T02:33:19.498Z,11.95
2023-06-18T02:35:47.207Z,11.90
2023-06-18T02:38:14.952Z,11.85
2023-06-18T02:40:42.822Z,11.80
2023-06-18T02:43:10.508Z,11.74
2023-06-18T02:45:38.633Z,11.68
2023-06-18T02:48:06.468Z,11.64
2023-06-18T02:50:34.146Z,11.61
2023-06-18T02:53:01.996Z,11.61
2023-06-18T02:55:32.830Z,11.63
2023-06-18T02:58:00.589Z,11.64
2023-06-18T03:00:28.229Z,11.63
2023-06-18T03:02:55.978Z,11.64
2023-06-18T03:05:23.966Z,11.65
2023-06-18T03:07:52.328Z,11.65
2023-06-18T03:10:20.215Z,11.66
2023-06-18T03:12:48.152Z,11.71
2023-06-18T03:15:15.895Z,11.74
2023-06-18T03:17:44.645Z,11.76
2023-06-18T03:20:13.038Z,11.77
2023-06-18T03:22:40.791Z,11.78
2023-06-18T03:25:09.866Z,11.78
2023-06-18T03:27:37.517Z,11.78
2023-06-18T03:30:05.604Z,11.80
2023-06-18T03:32:33.862Z,11.81
2023-06-18T03:35:01.626Z,11.85
2023-06-18T03:37:29.569Z,11.93
2023-06-18T03:39:58.206Z,12.02
2023-06-18T03:42:26.076Z,12.10
2023-06-18T03:44:53.725Z,12.18
2023-06-18T03:47:21.443Z,12.25
2023-06-18T03:49:49.160Z,12.31
2023-06-18T03:52:16.825Z,12.36
2023-06-18T03:54:44.497Z,12.41
2023-06-18T03:57:13.615Z,12.48
2023-06-18T03:59:41.298Z,12.59
2023-06-18T04:02:09.033Z,12.70
2023-06-18T04:04:36.766Z,12.78
2023-06-18T04:07:04.721Z,12.85
2023-06-18T04:09:32.404Z,12.92
2023-06-18T04:12:00.054Z,12.99
2023-06-18T04:14:28.405Z,13.09
2023-06-18T04:16:56.320Z,13.22
2023-06-18T04:19:24.053Z,13.35
2023-06-18T04:21:51.721Z,13.49
2023-06-18T04:24:19.399Z,13.61
2023-06-18T04:26:47.041Z,13.72
2023-06-18T04:29:17.107Z,13.80
2023-06-18T04:31:44.914Z,13.87
2023-06-18T04:34:12.915Z,13.95
2023-06-18T04:36:41.701Z,14.05
2023-06-18T04:39:09.434Z,14.16
2023-06-18T04:41:37.122Z,14.27
2023-06-18T04:44:05.020Z,14.35
2023-06-18T04:46:34.276Z,14.40
2023-06-18T04:49:01.969Z,14.45
2023-06-18T04:51:31.098Z,14.49
2023-06-18T04:53:58.916Z,14.55
2023-06-18T04:56:27.309Z,14.64
2023-06-18T04:58:54.953Z,14.74
2023-06-18T05:01:22.622Z,14.82
2023-06-18T05:03:50.473Z,14.89
2023-06-18T05:06:18.235Z,14.96
2023-06-18T05:08:47.976Z,15.01
2023-06-18T05:11:15.719Z,15.08
2023-06-18T05:13:43.438Z,15.18
2023-06-18T05:16:11.191Z,15.28
2023-06-18T05:18:39.821Z,15.37
2023-06-18T05:21:07.552Z,15.42
2023-06-18T05:23:35.274Z,15.46
2023-06-18T05:26:03.062Z,15.53
2023-06-18T05:28:30.776Z,15.61
2023-06-18T05:30:58.444Z,15.69
2023-06-18T05:33:26.166Z,15.78
2023-06-18T05:35:53.871Z,15.84
2023-06-18T05:38:21.528Z,15.89
2023-06-18T05:40:49.455Z,15.95
2023-06-18T05:43:17.119Z,16.04
2023-06-18T05:45:44.790Z,16.14
2023-06-18T05:48:12.752Z,16.21
2023-06-18T05:50:40.611Z,16.26
2023-06-18T05:53:08.733Z,16.32
2023-06-18T05:55:39.410Z,16.38
2023-06-18T05:58:08.233Z,16.46
2023-06-18T06:00:36.125Z,16.55
2023-06-18T06:03:04.062Z,16.63
2023-06-18T06:05:32.074Z,16.69
2023-06-18T06:07:59.872Z,16.74
2023-06-18T06:10:27.862Z,16.79
2023-06-18T06:12:55.907Z,16.85
2023-06-18T06:15:23.566Z,16.91
2023-06-18T06:17:51.381Z,16.99
2023-06-18T06:20:19.167Z,17.07
2023-06-18T06:22:46.901Z,17.14
2023-06-18T06:25:14.576Z,17.20
2023-06-18T06:27:44.179Z,17.25
2023-06-18T06:30:12.202Z,17.29
2023-06-18T06:32:40.183Z,17.38
2023-06-18T06:35:08.019Z,17.48
2023-06-18T06:37:35.744Z,17.56
2023-06-18T06:40:05.126Z,17.63
2023-06-18T06:42:32.802Z,17.69
2023-06-18T06:45:01.407Z,17.75
2023-06-18T06:47:29.126Z,17.85
2023-06-18T06:49:56.802Z,17.93
2023-06-18T06:52:24.477Z,18.01
2023-06-18T06:54:52.335Z,18.15
2023-06-18T06:57:20.067Z,18.26
2023-06-18T06:59:47.711Z,18.32
2023-06-18T07:02:15.390Z,18.40
2023-06-18T07:04:47.438Z,18.49
2023-06-18T07:07:15.757Z,18.56
2023-06-18T07:09:43.825Z,18.64
2023-06-18T07:12:12.836Z,18.78
2023-06-18T07:14:40.783Z,18.95
2023-06-18T07:17:08.459Z,19.07
2023-06-18T07:19:36.220Z,19.17
2023-06-18T07:22:04.482Z,19.22
2023-06-18T07:24:32.380Z,19.26
2023-06-18T07:27:00.438Z,19.31
2023-06-18T07:29:28.122Z,19.33
2023-06-18T07:31:56.010Z,19.35
2023-06-18T07:34:23.711Z,19.41
2023-06-18T07:36:51.415Z,19.50
2023-06-18T07:39:21.445Z,19.60
2023-06-18T07:41:51.026Z,19.68
2023-06-18T07:44:18.758Z,19.76
2023-06-18T07:46:46.589Z,19.84
2023-06-18T07:49:14.334Z,19.98
2023-06-18T07:51:41.968Z,20.13
2023-06-18T07:54:09.633Z,20.23
2023-06-18T07:56:37.412Z,20.29
2023-06-18T07:59:05.256Z,20.40
2023-06-18T08:01:33.418Z,20.52
2023-06-18T08:04:01.533Z,20.60
2023-06-18T08:06:29.360Z,20.65
2023-06-18T08:08:57.098Z,20.69
2023-06-18T08:11:25.322Z,20.69
2023-06-18T08:13:52.991Z,20.70
2023-06-18T08:16:23.545Z,20.64
2023-06-18T08:18:54.308Z,20.56
2023-06-18T08:21:23.203Z,20.50
2023-06-18T08:23:51.678Z,20.41
2023-06-18T08:26:20.495Z,20.37
2023-06-18T08:28:48.961Z,20.31
2023-06-18T08:31:16.702Z,20.29
2023-06-18T08:33:44.339Z,20.27
2023-06-18T08:36:12.255Z,20.27
2023-06-18T08:38:39.963Z,20.26
2023-06-18T08:41:08.945Z,20.26
2023-06-18T08:43:38.520Z,20.27
2023-06-18T08:46:16.873Z,20.32
2023-06-18T08:48:46.172Z,20.41
2023-06-18T08:51:14.104Z,20.50
2023-06-18T08:53:46.009Z,20.60
2023-06-18T08:56:17.046Z,20.74
2023-06-18T08:58:50.129Z,20.85
2023-06-18T09:01:21.675Z,20.87
2023-06-18T09:03:49.783Z,20.87
2023-06-18T09:06:17.426Z,20.88
2023-06-18T09:08:45.298Z,20.91
2023-06-18T09:11:13.132Z,20.94
2023-06-18T09:13:42.734Z,20.97
2023-06-18T09:16:10.908Z,20.98
2023-06-18T09:18:38.709Z,21.05
2023-06-18T09:21:06.947Z,21.12
2023-06-18T09:23:34.862Z,21.23
2023-06-18T09:26:02.742Z,21.34
2023-06-18T09:28:30.447Z,21.40
2023-06-18T09:30:59.980Z,21.52
2023-06-18T09:33:33.050Z,21.65
2023-06-18T09:36:04.357Z,21.80
2023-06-18T09:38:35.857Z,21.99
2023-06-18T09:41:03.764Z,22.18
2023-06-18T09:43:36.089Z,22.39
2023-06-18T09:46:10.976Z,22.60
2023-06-18T09:48:43.178Z,22.70
2023-06-18T09:51:11.479Z,22.73
2023-06-18T09:53:39.190Z,22.75
2023-06-18T09:56:17.833Z,22.78
2023-06-18T09:58:48.669Z,22.85
2023-06-18T10:01:17.623Z,22.94
2023-06-18T10:03:46.086Z,23.12
2023-06-18T10:06:18.513Z,23.28
2023-06-18T10:08:48.031Z,23.53
2023-06-18T10:11:16.730Z,23.78
2023-06-18T10:13:50.644Z,23.89
2023-06-18T10:16:19.165Z,24.03
2023-06-18T10:18:59.254Z,24.07
2023-06-18T10:21:27.205Z,24.13
2023-06-18T10:24:09.030Z,24.19
2023-06-18T10:26:38.070Z,24.52
2023-06-18T10:29:06.517Z,24.74
2023-06-18T10:31:34.165Z,24.77
2023-06-18T10:34:01.905Z,24.77
2023-06-18T10:36:29.892Z,24.75
2023-06-18T10:38:58.224Z,24.63
2023-06-18T10:41:26.370Z,24.41
2023-06-18T10:43:54.825Z,24.20
2023-06-18T10:46:23.075Z,24.02
2023-06-18T10:49:21.260Z,23.83
2023-06-18T10:51:58.154Z,23.55
2023-06-18T10:54:30.558Z,23.21
2023-06-18T10:56:58.981Z,22.71
2023-06-18T10:59:46.719Z,22.28
2023-06-18T11:02:15.039Z,21.90
2023-06-18T11:04:42.889Z,21.58
2023-06-18T11:07:21.308Z,21.31
2023-06-18T11:09:58.885Z,21.10
2023-06-18T11:12:28.697Z,20.90
2023-06-18T11:15:16.921Z,20.76
2023-06-18T11:17:50.436Z,20.65
2023-06-18T11:20:20.165Z,20.60
2023-06-18T11:22:48.358Z,20.54
2023-06-18T11:25:16.419Z,20.54
2023-06-18T11:27:46.088Z,20.59
2023-06-18T11:30:14.660Z,20.70
2023-06-18T11:32:42.645Z,20.81
2023-06-18T11:35:11.276Z,20.92
2023-06-18T11:37:39.876Z,21.03
2023-06-18T11:40:09.455Z,21.15
2023-06-18T11:42:38.898Z,21.33
2023-06-18T11:45:07.198Z,21.59
2023-06-18T11:47:35.977Z,22.03
2023-06-18T11:50:04.129Z,22.53
2023-06-18T11:52:31.949Z,23.03
2023-06-18T11:55:04.787Z,23.58
2023-06-18T11:57:32.931Z,24.14
2023-06-18T12:00:00.797Z,24.60
2023-06-18T12:02:29.027Z,25.04
2023-06-18T12:05:02.757Z,25.54
2023-06-18T12:07:31.063Z,25.97
2023-06-18T12:10:02.290Z,26.07
2023-06-18T12:12:36.146Z,25.96
2023-06-18T12:15:18.009Z,25.87
2023-06-18T12:17:59.442Z,25.82
2023-06-18T12:20:29.405Z,25.72
2023-06-18T12:22:58.570Z,25.54
2023-06-18T12:25:29.044Z,25.51
2023-06-18T12:27:57.927Z,25.69
2023-06-18T12:30:32.460Z,26.04
2023-06-18T12:33:10.782Z,26.46
2023-06-18T12:35:41.391Z,26.89
2023-06-18T12:38:09.969Z,27.20
2023-06-18T12:40:51.496Z,27.27
2023-06-18T12:43:20.310Z,27.46
2023-06-18T12:45:52.066Z,27.63
2023-06-18T12:48:22.474Z,27.86
2023-06-18T12:50:51.514Z,28.09
2023-06-18T12:53:24.210Z,28.19
2023-06-18T12:55:55.218Z,28.42
2023-06-18T12:58:27.828Z,28.62
2023-06-18T13:00:58.467Z,28.98
2023-06-18T13:03:27.786Z,29.31
2023-06-18T13:05:57.050Z,29.56
2023-06-18T13:08:24.750Z,29.84
2023-06-18T13:10:53.602Z,29.96
2023-06-18T13:13:21.338Z,29.84
2023-06-18T13:15:49.880Z,29.63
2023-06-18T13:18:19.126Z,29.49
2023-06-18T13:20:47.880Z,29.40
2023-06-18T13:23:16.563Z,29.31
2023-06-18T13:25:44.815Z,29.24
2023-06-18T13:28:12.754Z,29.18
2023-06-18T13:30:40.480Z,29.08
2023-06-18T13:33:09.018Z,28.88
2023-06-18T13:35:36.861Z,28.63
2023-06-18T13:38:04.625Z,28.41
2023-06-18T13:40:32.325Z,28.27
2023-06-18T13:43:00.121Z,28.20
2023-06-18T13:45:28.179Z,28.16
2023-06-18T13:47:56.257Z,28.10
2023-06-18T13:50:24.049Z,28.10
2023-06-18T13:52:51.750Z,28.18
2023-06-18T13:55:19.587Z,28.31
2023-06-18T13:57:47.289Z,28.49
2023-06-18T14:00:15.659Z,28.57
2023-06-18T14:02:43.484Z,28.51
2023-06-18T14:05:12.172Z,28.29
2023-06-18T14:07:40.263Z,28.03
2023-06-18T14:10:08.481Z,27.68
2023-06-18T14:12:36.505Z,27.32
2023-06-18T14:15:04.852Z,26.91
2023-06-18T14:17:32.595Z,26.56
2023-06-18T14:20:00.422Z,26.23
2023-06-18T14:22:28.242Z,25.93
2023-06-18T14:24:57.126Z,25.65
2023-06-18T14:27:24.933Z,25.42
2023-06-18T14:29:52.758Z,25.19
2023-06-18T14:32:23.758Z,24.99
2023-06-18T14:34:54.482Z,24.83
2023-06-18T14:37:23.278Z,24.64
2023-06-18T14:39:51.530Z,24.39
2023-06-18T14:42:19.442Z,24.05
2023-06-18T14:44:47.209Z,23.72
2023-06-18T14:47:14.887Z,23.54
2023-06-18T14:49:42.610Z,23.47
2023-06-18T14:52:10.378Z,23.37
2023-06-18T14:54:40.585Z,23.32
2023-06-18T14:57:08.336Z,23.33
2023-06-18T14:59:37.607Z,23.40
2023-06-18T15:02:16.158Z,23.51
2023-06-18T15:04:54.735Z,24.01
2023-06-18T15:07:22.456Z,24.59
2023-06-18T15:09:50.126Z,25.15
2023-06-18T15:12:17.826Z,25.71
2023-06-18T15:14:46.124Z,26.12
2023-06-18T15:17:14.433Z,26.39
2023-06-18T15:19:42.752Z,26.54
2023-06-18T15:22:10.499Z,26.47
2023-06-18T15:24:38.267Z,26.33
2023-06-18T15:27:06.655Z,26.14
2023-06-18T15:29:35.597Z,25.97
2023-06-18T15:32:03.490Z,25.80
2023-06-18T15:34:31.160Z,25.63
2023-06-18T15:36:58.835Z,25.45
2023-06-18T15:39:27.089Z,25.27
2023-06-18T15:41:54.864Z,25.12
2023-06-18T15:44:22.599Z,24.97
2023-06-18T15:46:50.374Z,24.80
2023-06-18T15:49:18.381Z,24.61
2023-06-18T15:51:46.126Z,24.44
2023-06-18T15:54:13.794Z,24.30
2023-06-18T15:56:43.682Z,24.19
2023-06-18T15:59:11.730Z,24.07
2023-06-18T16:01:39.581Z,23.98
2023-06-18T16:04:07.281Z,23.92
2023-06-18T16:06:34.942Z,23.89
2023-06-18T16:09:02.842Z,23.90
2023-06-18T16:11:30.755Z,23.99
2023-06-18T16:13:59.205Z,24.32
2023-06-18T16:16:30.413Z,24.76
2023-06-18T16:18:58.412Z,25.20
2023-06-18T16:21:28.865Z,25.61
2023-06-18T16:23:56.742Z,25.98
2023-06-18T16:26:26.411Z,26.29
2023-06-18T16:28:54.367Z,26.59
2023-06-18T16:31:22.388Z,26.82
2023-06-18T16:33:50.382Z,27.05
2023-06-18T16:36:18.391Z,27.27
2023-06-18T16:38:46.132Z,27.46
2023-06-18T16:41:14.062Z,27.60
2023-06-18T16:43:41.700Z,27.72
2023-06-18T16:46:10.399Z,27.81
2023-06-18T16:48:38.125Z,27.87
2023-06-18T16:51:05.838Z,27.89
2023-06-18T16:53:33.518Z,27.89
2023-06-18T16:56:01.218Z,27.90
2023-06-18T16:58:28.877Z,27.93
2023-06-18T17:00:57.322Z,27.93
2023-06-18T17:03:25.092Z,27.95
2023-06-18T17:05:54.871Z,27.97
2023-06-18T17:08:23.474Z,27.98
2023-06-18T17:10:51.733Z,27.99
2023-06-18T17:13:19.476Z,28.01
2023-06-18T17:15:49.057Z,28.03
2023-06-18T17:18:18.312Z,28.03
2023-06-18T17:20:45.976Z,27.98
2023-06-18T17:23:13.623Z,27.95
2023-06-18T17:25:41.621Z,27.92
2023-06-18T17:28:10.370Z,27.86
2023-06-18T17:30:38.146Z,27.82
2023-06-18T17:33:06.490Z,27.80
2023-06-18T17:35:34.387Z,27.76
2023-06-18T17:38:02.010Z,27.72
2023-06-18T17:40:29.922Z,27.68
2023-06-18T17:42:57.600Z,27.65
2023-06-18T17:45:26.454Z,27.61
2023-06-18T17:47:54.579Z,27.58
2023-06-18T17:50:22.242Z,27.55
2023-06-18T17:52:50.117Z,27.49
2023-06-18T17:55:18.038Z,27.41
2023-06-18T17:57:45.877Z,27.33
2023-06-18T18:00:14.837Z,27.23
2023-06-18T18:02:42.695Z,27.11
2023-06-18T18:05:10.568Z,26.96
2023-06-18T18:07:38.231Z,26.82
2023-06-18T18:10:06.644Z,26.66
2023-06-18T18:12:34.325Z,26.48
2023-06-18T18:15:02.047Z,26.29
2023-06-18T18:17:29.715Z,26.07
2023-06-18T18:19:57.931Z,25.88
2023-06-18T18:22:25.713Z,25.68
2023-06-18T18:24:53.408Z,25.43
2023-06-18T18:27:21.189Z,25.14
2023-06-18T18:29:48.905Z,24.85
2023-06-18T18:32:17.144Z,24.54
2023-06-18T18:34:44.916Z,24.26
2023-06-18T18:37:13.139Z,23.98
2023-06-18T18:39:42.567Z,23.72
2023-06-18T18:42:10.656Z,23.46
2023-06-18T18:44:40.203Z,23.19
2023-06-18T18:47:08.535Z,22.94
2023-06-18T18:49:36.350Z,22.70
2023-06-18T18:52:04.469Z,22.49
2023-06-18T18:54:32.835Z,22.28
2023-06-18T18:57:00.578Z,22.08
2023-06-18T18:59:28.255Z,21.86
2023-06-18T19:01:56.094Z,21.67
2023-06-18T19:04:23.768Z,21.49
2023-06-18T19:06:51.430Z,21.31
2023-06-18T19:09:20.197Z,21.15
2023-06-18T19:11:47.872Z,20.99
2023-06-18T19:14:15.533Z,20.84
2023-06-18T19:16:43.476Z,20.69
2023-06-18T19:19:11.343Z,20.53
2023-06-18T19:21:39.041Z,20.37
2023-06-18T19:24:06.933Z,20.23
2023-06-18T19:26:34.657Z,20.08
2023-06-18T19:29:03.827Z,19.94
2023-06-18T19:31:31.565Z,19.81
2023-06-18T19:33:59.330Z,19.68
2023-06-18T19:36:26.973Z,19.55
2023-06-18T19:38:54.810Z,19.43
2023-06-18T19:41:22.562Z,19.30
2023-06-18T19:43:50.210Z,19.19
2023-06-18T19:46:18.101Z,19.08
2023-06-18T19:48:45.979Z,18.98
2023-06-18T19:51:16.844Z,18.87
2023-06-18T19:53:45.357Z,18.77
2023-06-18T19:56:14.132Z,18.66
2023-06-18T19:58:41.850Z,18.57
2023-06-18T20:01:09.661Z,18.47
2023-06-18T20:03:38.765Z,18.39
2023-06-18T20:06:06.630Z,18.35
2023-06-18T20:08:34.485Z,18.32
2023-06-18T20:11:02.409Z,18.29
2023-06-18T20:13:30.113Z,18.24
2023-06-18T20:15:58.105Z,18.18
2023-06-18T20:18:25.764Z,18.12
2023-06-18T20:20:55.510Z,18.07
2023-06-18T20:23:23.423Z,18.01
2023-06-18T20:25:51.117Z,17.96
2023-06-18T20:28:18.866Z,17.90
2023-06-18T20:30:46.549Z,17.83
2023-06-18T20:33:14.573Z,17.77
2023-06-18T20:35:42.259Z,17.72
2023-06-18T20:38:10.187Z,17.66
2023-06-18T20:40:38.331Z,17.61
2023-06-18T20:43:06.048Z,17.58
2023-06-18T20:45:33.763Z,17.58
2023-06-18T20:48:01.628Z,17.58
2023-06-18T20:50:29.627Z,17.58
2023-06-18T20:52:57.278Z,17.57
2023-06-18T20:55:24.939Z,17.55
2023-06-18T20:57:52.763Z,17.52
2023-06-18T21:00:20.665Z,17.47
2023-06-18T21:02:48.922Z,17.40
2023-06-18T21:05:16.992Z,17.33
2023-06-18T21:07:44.736Z,17.27
2023-06-18T21:10:12.554Z,17.21
2023-06-18T21:12:40.220Z,17.15
2023-06-18T21:15:08.662Z,17.08
2023-06-18T21:17:36.344Z,17.02
2023-06-18T21:20:04.392Z,16.99
2023-06-18T21:22:32.091Z,16.97
2023-06-18T21:24:59.764Z,16.94
2023-06-18T21:27:27.400Z,16.91
2023-06-18T21:29:55.117Z,16.87
2023-06-18T21:32:22.816Z,16.82
2023-06-18T21:34:50.478Z,16.75
2023-06-18T21:37:18.191Z,16.69
2023-06-18T21:39:47.753Z,16.64
2023-06-18T21:42:17.045Z,16.59
2023-06-18T21:44:44.752Z,16.54
2023-06-18T21:47:12.434Z,16.48
2023-06-18T21:49:40.161Z,16.44
2023-06-18T21:52:08.324Z,16.42
2023-06-18T21:54:35.979Z,16.42
2023-06-18T21:57:03.868Z,16.40
2023-06-18T21:59:31.622Z,16.36
2023-06-18T22:01:59.325Z,16.32
2023-06-18T22:04:27.011Z,16.28
2023-06-18T22:06:54.904Z,16.24
2023-06-18T22:09:24.315Z,16.19
2023-06-18T22:11:52.318Z,16.12
2023-06-18T22:14:20.092Z,16.05
2023-06-18T22:16:48.646Z,15.98
2023-06-18T22:19:16.577Z,15.91
2023-06-18T22:21:44.287Z,15.85
2023-06-18T22:24:12.759Z,15.82
2023-06-18T22:26:43.046Z,15.81
2023-06-18T22:29:10.720Z,15.77
2023-06-18T22:31:38.486Z,15.74
2023-06-18T22:34:06.144Z,15.70
2023-06-18T22:36:33.826Z,15.66
2023-06-18T22:39:01.556Z,15.60
2023-06-18T22:41:29.355Z,15.53
2023-06-18T22:43:57.018Z,15.46
2023-06-18T22:46:24.808Z,15.39
2023-06-18T22:48:52.537Z,15.35
2023-06-18T22:51:20.234Z,15.35
2023-06-18T22:53:47.874Z,15.33
2023-06-18T22:56:15.495Z,15.31
2023-06-18T22:58:43.209Z,15.28
2023-06-18T23:01:10.932Z,15.21
2023-06-18T23:03:38.813Z,15.15
2023-06-18T23:06:06.598Z,15.08
2023-06-18T23:08:34.277Z,15.02
2023-06-18T23:11:02.050Z,14.97
2023-06-18T23:13:29.752Z,14.91
2023-06-18T23:15:57.411Z,14.88
2023-06-18T23:18:27.594Z,14.87
2023-06-18T23:20:55.733Z,14.88
2023-06-18T23:23:23.445Z,14.87
2023-06-18T23:25:51.060Z,14.83
2023-06-18T23:28:18.793Z,14.80
2023-06-18T23:30:47.540Z,14.76
2023-06-18T23:33:15.293Z,14.69
2023-06-18T23:35:44.502Z,14.63
2023-06-18T23:38:12.662Z,14.56
2023-06-18T23:40:40.498Z,14.51
2023-06-18T23:43:08.195Z,14.50
2023-06-18T23:45:35.887Z,14.49
2023-06-18T23:48:03.997Z,14.46
2023-06-18T23:50:31.860Z,14.42
2023-06-18T23:52:59.540Z,14.38
2023-06-18T23:55:27.184Z,14.34
2023-06-18T23:57:55.087Z,14.31
